Bantry, North Dakota
Current Conditions -  °F | °C
As of 3:35 PM on Wednesday 17 Dec 2014 (Local Time) from KRUG Reporting Station
Clear Clear  
Wind Chill:   Ceiling: Unl
Heat Index: 16°   Visibility: 10mi
Dew Point: 10°   Wind: 9mph
Humidity: 79%   Direction: 130°SE
Pressure: 30.23"   Gusts: NA
Location:  48.5°N, 100.61°W
Report Text: KRUG 172135Z AUTO 13008KT 10SM CLR M09/M12 A3023 RMK AO2
Loading
Personal Weather Stations






























Interactive Weather Map New forecast layout! Learn more

10-Day Weather Forecast

Advertisements
Track Severe Weather on mobile